KDTN/DTN METAR and TAF weather

Enter ICAO airport designator
Station Type Date Time Source
KDTN METAR 2022/06/28 13:53 UTC NOAA

KDTN 281353Z AUTO 03008KT 10SM CLR 24/14 A3018 RMK AO2 SLP216 T02390144


Station Type Date Time Source
KDTN Decoded METAR 2022/06/28 13:53 UTC NOAA

SHREVEPORT DOWNTOWN AIRPORT, LA, United States (KDTN) 32-32N 093-45W 53M
Jun 28, 2022 - 09:53 AM EDT / 2022.06.28 1353 UTC
Wind: from the NNE (030 degrees) at 9 MPH (8 KT):0
Visibility: 10 mile(s):0
Sky conditions: clear
Temperature: 75.0 F (23.9 C)
Dew Point: 57.9 F (14.4 C)
Relative Humidity: 55%
Pressure (altimeter): 30.18 in. Hg (1022 hPa)
ob: KDTN 281353Z AUTO 03008KT 10SM CLR 24/14 A3018 RMK AO2 SLP216 T02390144
cycle: 14

Station Type Date Time Source
KDTN TAF UTC NOAA

Error!

Example: see airport list